createdAt,value
2018-02-05T00:01:34.219Z,10.10
2018-02-05T00:04:00.361Z,9.73
2018-02-05T00:06:26.536Z,9.93
2018-02-05T00:08:52.620Z,10.30
2018-02-05T00:11:18.726Z,9.60
2018-02-05T00:13:44.894Z,9.63
2018-02-05T00:16:11.137Z,11.63
2018-02-05T00:18:37.268Z,9.47
2018-02-05T00:21:03.397Z,9.90
2018-02-05T00:23:29.605Z,10.03
2018-02-05T00:25:55.760Z,9.47
2018-02-05T00:28:21.922Z,9.83
2018-02-05T00:30:48.050Z,9.23
2018-02-05T00:33:14.196Z,9.87
2018-02-05T00:35:40.322Z,9.60
2018-02-05T00:38:06.406Z,9.13
2018-02-05T00:40:32.549Z,8.83
2018-02-05T00:42:58.724Z,9.63
2018-02-05T00:45:24.860Z,9.53
2018-02-05T00:47:50.947Z,9.97
2018-02-05T00:50:17.122Z,10.23
2018-02-05T00:52:43.219Z,13.43
2018-02-05T00:55:09.379Z,10.23
2018-02-05T00:57:35.535Z,8.50
2018-02-05T01:00:01.687Z,9.30
2018-02-05T01:02:27.951Z,10.20
2018-02-05T01:04:54.064Z,10.13
2018-02-05T01:07:20.242Z,10.40
2018-02-05T01:09:46.340Z,10.73
2018-02-05T01:12:12.468Z,9.07
2018-02-05T01:14:38.584Z,9.40
2018-02-05T01:17:04.736Z,9.87
2018-02-05T01:19:30.848Z,9.43
2018-02-05T01:21:56.966Z,9.73
2018-02-05T01:24:23.065Z,10.17
2018-02-05T01:26:49.213Z,9.77
2018-02-05T01:29:15.368Z,11.27
2018-02-05T01:31:41.474Z,9.67
2018-02-05T01:34:07.606Z,9.97
2018-02-05T01:36:33.769Z,9.93
2018-02-05T01:38:59.898Z,9.43
2018-02-05T01:41:26.003Z,10.00
2018-02-05T01:43:52.119Z,10.57
2018-02-05T01:46:18.282Z,9.73
2018-02-05T01:48:44.395Z,9.60
2018-02-05T01:51:10.486Z,8.80
2018-02-05T01:53:36.687Z,8.33
2018-02-05T01:56:02.864Z,8.97
2018-02-05T01:58:29.135Z,9.30
2018-02-05T02:00:55.224Z,12.13
2018-02-05T02:03:21.318Z,9.07
2018-02-05T02:05:47.461Z,8.97
2018-02-05T02:08:13.597Z,8.07
2018-02-05T02:10:39.671Z,8.53
2018-02-05T02:13:05.821Z,9.13
2018-02-05T02:15:31.940Z,8.67
2018-02-05T02:17:58.027Z,8.87
2018-02-05T02:20:24.158Z,9.33
2018-02-05T02:22:50.280Z,8.83
2018-02-05T02:25:16.370Z,8.97
2018-02-05T02:27:42.599Z,8.80
2018-02-05T02:30:08.724Z,8.70
2018-02-05T02:32:34.897Z,8.77
2018-02-05T02:35:01.051Z,8.70
2018-02-05T02:37:27.220Z,10.67
2018-02-05T02:39:53.325Z,9.10
2018-02-05T02:42:19.411Z,8.77
2018-02-05T02:44:45.529Z,8.80
2018-02-05T02:47:11.701Z,9.60
2018-02-05T02:49:37.789Z,9.60
2018-02-05T02:52:03.952Z,9.57
2018-02-05T02:54:30.054Z,8.23
2018-02-05T02:56:56.287Z,11.50
2018-02-05T02:59:22.499Z,12.10
2018-02-05T03:01:48.596Z,11.83
2018-02-05T03:04:14.758Z,9.13
2018-02-05T03:06:40.891Z,8.70
2018-02-05T03:09:07.061Z,10.37
2018-02-05T03:11:33.229Z,10.30
2018-02-05T03:13:59.330Z,11.70
2018-02-05T03:16:25.551Z,10.53
2018-02-05T03:18:51.831Z,9.50
2018-02-05T03:21:17.948Z,10.33
2018-02-05T03:23:44.118Z,11.33
2018-02-05T03:26:10.282Z,12.60
2018-02-05T03:28:36.406Z,12.10
2018-02-05T03:31:02.556Z,12.50
2018-02-05T03:33:28.780Z,11.60
2018-02-05T03:35:54.912Z,12.20
2018-02-05T03:38:21.004Z,13.70
2018-02-05T03:40:47.140Z,13.97
2018-02-05T03:43:13.236Z,14.23
2018-02-05T03:45:39.398Z,15.37
2018-02-05T03:48:05.528Z,14.30
2018-02-05T03:50:31.704Z,14.40
2018-02-05T03:52:57.803Z,13.17
2018-02-05T03:55:23.956Z,14.67
2018-02-05T03:57:50.169Z,15.03
2018-02-05T04:00:16.279Z,16.27
2018-02-05T04:02:42.434Z,17.23
2018-02-05T04:05:08.541Z,16.30
2018-02-05T04:07:35.238Z,16.80
2018-02-05T04:10:01.346Z,16.57
2018-02-05T04:12:27.564Z,15.00
2018-02-05T04:14:53.658Z,15.40
2018-02-05T04:17:19.919Z,16.50
2018-02-05T04:19:46.095Z,16.73
2018-02-05T04:22:12.342Z,19.17
2018-02-05T04:24:38.529Z,16.37
2018-02-05T04:27:04.821Z,16.80
2018-02-05T04:29:30.976Z,17.50
2018-02-05T04:31:57.141Z,17.43
2018-02-05T04:34:23.322Z,16.17
2018-02-05T04:36:49.491Z,15.53
2018-02-05T04:39:15.619Z,14.47
2018-02-05T04:41:41.804Z,15.03
2018-02-05T04:44:08.015Z,15.97
2018-02-05T04:46:34.212Z,15.13
2018-02-05T04:49:00.326Z,17.37
2018-02-05T04:51:26.461Z,17.43
2018-02-05T04:53:52.633Z,16.93
2018-02-05T04:56:18.811Z,17.47
2018-02-05T04:58:44.975Z,17.27
2018-02-05T05:01:11.253Z,16.47
2018-02-05T05:03:37.390Z,16.60
2018-02-05T05:06:03.575Z,17.40
2018-02-05T05:08:29.702Z,16.67
2018-02-05T05:10:55.817Z,16.63
2018-02-05T05:13:21.956Z,17.17
2018-02-05T05:15:48.106Z,15.70
2018-02-05T05:18:14.302Z,16.20
2018-02-05T05:20:40.450Z,15.50
2018-02-05T05:23:06.606Z,17.07
2018-02-05T05:25:32.740Z,17.63
2018-02-05T05:27:58.969Z,15.40
2018-02-05T05:30:25.117Z,17.23
2018-02-05T05:32:51.301Z,18.17
2018-02-05T05:35:17.440Z,20.03
2018-02-05T05:37:43.665Z,18.77
2018-02-05T05:40:09.827Z,18.10
2018-02-05T05:42:36.040Z,18.07
2018-02-05T05:45:02.192Z,18.73
2018-02-05T05:47:28.450Z,19.57
2018-02-05T05:49:54.586Z,20.27
2018-02-05T05:52:20.705Z,18.70
2018-02-05T05:54:46.894Z,17.33
2018-02-05T05:57:13.058Z,16.57
2018-02-05T05:59:39.230Z,17.27
2018-02-05T06:02:05.552Z,16.33
2018-02-05T06:04:31.667Z,16.57
2018-02-05T06:06:57.965Z,15.77
2018-02-05T06:09:24.107Z,13.87
2018-02-05T06:11:50.228Z,15.53
2018-02-05T06:14:16.412Z,14.10
2018-02-05T06:16:42.634Z,14.70
2018-02-05T06:19:08.750Z,14.00
2018-02-05T06:21:34.930Z,14.80
2018-02-05T06:24:01.088Z,14.67
2018-02-05T06:26:27.304Z,13.77
2018-02-05T06:28:53.451Z,13.10
2018-02-05T06:31:19.618Z,13.70
2018-02-05T06:33:45.804Z,13.57
2018-02-05T06:36:11.935Z,12.33
2018-02-05T06:38:38.167Z,15.43
2018-02-05T06:41:04.353Z,13.87
2018-02-05T06:43:30.503Z,14.03
2018-02-05T06:45:56.727Z,13.30
2018-02-05T06:48:22.903Z,13.00
2018-02-05T06:51:01.192Z,13.87
2018-02-05T06:53:39.412Z,15.00
2018-02-05T06:56:17.786Z,13.53
2018-02-05T06:58:43.989Z,11.77
2018-02-05T07:01:10.177Z,14.33
2018-02-05T07:03:36.362Z,14.73
2018-02-05T07:06:02.509Z,14.47
2018-02-05T07:08:28.773Z,14.67
2018-02-05T07:10:54.911Z,15.00
2018-02-05T07:13:21.065Z,18.33
2018-02-05T07:15:47.294Z,16.67
2018-02-05T07:18:13.545Z,15.73
2018-02-05T07:20:41.143Z,23.33
2018-02-05T07:23:07.283Z,14.23
2018-02-05T07:25:33.491Z,17.03
2018-02-05T07:27:59.681Z,15.47
2018-02-05T07:30:25.832Z,16.03
2018-02-05T07:32:52.052Z,14.13
2018-02-05T07:35:18.216Z,18.10
2018-02-05T07:37:44.440Z,16.53
2018-02-05T07:40:10.602Z,14.53
2018-02-05T07:42:36.734Z,13.33
2018-02-05T07:45:02.929Z,15.77
2018-02-05T07:47:29.136Z,14.23
2018-02-05T07:49:55.283Z,14.43
2018-02-05T07:52:21.499Z,17.47
2018-02-05T07:54:47.673Z,13.97
2018-02-05T07:57:13.870Z,15.67
2018-02-05T07:59:40.037Z,16.57
2018-02-05T08:02:06.276Z,15.23
2018-02-05T08:04:32.396Z,12.10
2018-02-05T08:06:58.644Z,17.33
2018-02-05T08:09:24.876Z,15.63
2018-02-05T08:11:51.034Z,13.27
2018-02-05T08:14:17.189Z,14.40
2018-02-05T08:16:43.444Z,13.70
2018-02-05T08:19:09.673Z,13.70
2018-02-05T08:21:35.824Z,15.13
2018-02-05T08:24:02.037Z,12.70
2018-02-05T08:26:28.212Z,14.70
2018-02-05T08:28:54.404Z,14.30
2018-02-05T08:31:20.599Z,13.33
2018-02-05T08:33:46.788Z,16.00
2018-02-05T08:36:12.958Z,15.00
2018-02-05T08:38:39.170Z,15.23
2018-02-05T08:41:05.322Z,13.67
2018-02-05T08:43:31.508Z,14.17
2018-02-05T08:45:57.798Z,13.47
2018-02-05T08:48:24.076Z,14.70
2018-02-05T08:50:50.233Z,15.87
2018-02-05T08:53:16.403Z,13.63
2018-02-05T08:55:42.662Z,16.03
2018-02-05T08:58:08.890Z,14.47
2018-02-05T09:00:35.051Z,14.73
2018-02-05T09:03:01.271Z,13.90
2018-02-05T09:05:27.458Z,15.43
2018-02-05T09:07:53.656Z,13.90
2018-02-05T09:10:19.832Z,15.23
2018-02-05T09:12:46.005Z,14.80
2018-02-05T09:15:12.203Z,13.63
2018-02-05T09:17:38.381Z,15.57
2018-02-05T09:20:04.578Z,17.03
2018-02-05T09:22:30.748Z,13.37
2018-02-05T09:24:56.904Z,15.73
2018-02-05T09:27:23.145Z,12.43
2018-02-05T09:29:49.308Z,14.93
2018-02-05T09:32:15.499Z,12.63
2018-02-05T09:34:41.650Z,15.07
2018-02-05T09:37:07.841Z,15.37
2018-02-05T09:39:34.021Z,13.63
2018-02-05T09:42:00.202Z,14.70
2018-02-05T09:44:26.417Z,15.37
2018-02-05T09:46:52.588Z,15.47
2018-02-05T09:49:18.949Z,14.37
2018-02-05T09:51:45.116Z,14.17
2018-02-05T09:54:11.280Z,14.87
2018-02-05T09:56:37.470Z,11.03
2018-02-05T09:59:03.706Z,12.37
2018-02-05T10:01:29.905Z,14.33
2018-02-05T10:03:56.081Z,13.93
2018-02-05T10:06:22.267Z,13.43
2018-02-05T10:08:48.453Z,13.13
2018-02-05T10:11:14.702Z,11.73
2018-02-05T10:13:40.875Z,14.73
2018-02-05T10:16:07.063Z,13.07
2018-02-05T10:18:33.303Z,13.93
2018-02-05T10:20:59.435Z,12.67
2018-02-05T10:23:25.584Z,13.20
2018-02-05T10:25:51.758Z,12.17
2018-02-05T10:28:18.912Z,12.67
2018-02-05T10:30:45.160Z,11.27
2018-02-05T10:33:11.459Z,11.97
2018-02-05T10:35:37.665Z,9.37
2018-02-05T10:38:03.886Z,12.03
2018-02-05T10:40:30.056Z,11.87
2018-02-05T10:42:56.219Z,12.30
2018-02-05T10:45:22.497Z,11.73
2018-02-05T10:47:48.728Z,11.53
2018-02-05T10:50:15.069Z,16.10
2018-02-05T10:52:41.340Z,12.03
2018-02-05T10:55:07.486Z,10.70
2018-02-05T10:57:33.719Z,12.73
2018-02-05T10:59:59.857Z,11.30
2018-02-05T11:02:26.020Z,11.23
2018-02-05T11:07:35.292Z,10.57
2018-02-05T11:10:01.527Z,9.90
2018-02-05T11:12:27.699Z,11.63
2018-02-05T11:14:53.837Z,10.93
2018-02-05T11:17:20.078Z,10.53
2018-02-05T11:19:46.282Z,9.80
2018-02-05T11:22:12.456Z,10.50
2018-02-05T11:24:38.694Z,11.27
2018-02-05T11:27:04.850Z,10.17
2018-02-05T11:29:31.041Z,11.20
2018-02-05T11:31:57.296Z,14.63
2018-02-05T11:34:23.502Z,11.03
2018-02-05T11:36:49.697Z,12.53
2018-02-05T11:39:15.902Z,11.47
2018-02-05T11:41:42.121Z,10.57
2018-02-05T11:44:08.319Z,10.80
2018-02-05T11:46:34.516Z,10.23
2018-02-05T11:49:00.711Z,9.10
2018-02-05T11:51:26.960Z,15.13
2018-02-05T11:53:53.196Z,13.23
2018-02-05T11:56:20.350Z,10.23
2018-02-05T11:58:46.586Z,13.47
2018-02-05T12:01:12.923Z,11.70
2018-02-05T12:03:39.152Z,8.93
2018-02-05T12:06:05.336Z,11.27
2018-02-05T12:08:31.760Z,12.93
2018-02-05T12:10:58.008Z,11.50
2018-02-05T12:13:24.228Z,13.90
2018-02-05T12:15:50.404Z,12.70
2018-02-05T12:18:16.630Z,11.57
2018-02-05T12:20:42.798Z,12.87
2018-02-05T12:23:09.005Z,12.20
2018-02-05T12:25:35.452Z,11.63
2018-02-05T12:28:01.694Z,15.33
2018-02-05T12:30:27.852Z,13.63
2018-02-05T12:32:54.075Z,12.97
2018-02-05T12:35:20.243Z,11.97
2018-02-05T12:37:46.432Z,12.60
2018-02-05T12:40:12.716Z,11.10
2018-02-05T12:42:38.888Z,12.97
2018-02-05T12:45:05.124Z,15.07
2018-02-05T12:47:31.373Z,13.33
2018-02-05T12:49:57.576Z,12.77
2018-02-05T12:52:24.655Z,10.80
2018-02-05T12:54:50.844Z,11.90
2018-02-05T12:57:17.052Z,12.57
2018-02-05T12:59:49.297Z,12.80
2018-02-05T13:02:15.526Z,13.53
2018-02-05T13:04:47.641Z,12.57
2018-02-05T13:07:13.923Z,12.50
2018-02-05T13:09:40.149Z,11.63
2018-02-05T13:12:06.292Z,11.53
2018-02-05T13:14:32.454Z,12.70
2018-02-05T13:16:58.710Z,11.83
2018-02-05T13:19:25.000Z,11.50
2018-02-05T13:21:51.164Z,15.43
2018-02-05T13:24:17.328Z,12.40
2018-02-05T13:26:43.497Z,12.33
2018-02-05T13:29:09.731Z,13.27
2018-02-05T13:31:35.985Z,17.87
2018-02-05T13:34:02.229Z,16.97
2018-02-05T13:36:28.611Z,16.67
2018-02-05T13:38:54.877Z,14.17
2018-02-05T13:41:21.085Z,14.07
2018-02-05T13:43:47.272Z,14.43
2018-02-05T13:46:13.494Z,15.20
2018-02-05T13:48:39.689Z,14.33
2018-02-05T13:51:05.865Z,15.50
2018-02-05T13:53:32.043Z,14.40
2018-02-05T13:55:58.182Z,14.37
2018-02-05T13:58:24.384Z,18.27
2018-02-05T14:00:50.612Z,12.70
2018-02-05T14:03:16.792Z,13.67
2018-02-05T14:05:42.953Z,14.47
2018-02-05T14:08:09.091Z,12.40
2018-02-05T14:10:35.324Z,14.97
2018-02-05T14:13:01.507Z,13.53
2018-02-05T14:15:27.769Z,12.27
2018-02-05T14:17:54.053Z,12.87
2018-02-05T14:20:20.282Z,12.10
2018-02-05T14:22:46.472Z,14.07
2018-02-05T14:25:12.664Z,13.53
2018-02-05T14:27:38.838Z,13.03
2018-02-05T14:30:05.079Z,13.53
2018-02-05T14:32:31.316Z,14.40
2018-02-05T14:34:57.536Z,17.27
2018-02-05T14:37:23.726Z,13.57
2018-02-05T14:39:49.945Z,23.63
2018-02-05T14:42:16.127Z,14.43
2018-02-05T14:44:42.263Z,15.07
2018-02-05T14:47:08.448Z,14.60
2018-02-05T14:49:34.691Z,13.87
2018-02-05T14:52:00.850Z,15.10
2018-02-05T14:54:27.018Z,15.47
2018-02-05T14:56:53.333Z,14.70
2018-02-05T14:59:19.528Z,14.37
2018-02-05T15:01:45.815Z,13.00
2018-02-05T15:04:11.925Z,14.57
2018-02-05T15:06:38.222Z,14.40
2018-02-05T15:09:04.419Z,14.37
2018-02-05T15:11:30.584Z,14.60
2018-02-05T15:13:56.868Z,13.70
2018-02-05T15:16:23.139Z,14.33
2018-02-05T15:18:50.027Z,14.60
2018-02-05T15:21:16.223Z,12.70
2018-02-05T15:23:42.399Z,14.40
2018-02-05T15:26:08.657Z,14.73
2018-02-05T15:28:34.886Z,13.77
2018-02-05T15:31:01.088Z,13.40
2018-02-05T15:33:27.318Z,13.83
2018-02-05T15:35:53.553Z,13.77
2018-02-05T15:38:19.732Z,13.10
2018-02-05T15:40:46.006Z,13.40
2018-02-05T15:43:12.241Z,14.83
2018-02-05T15:45:38.409Z,13.47
2018-02-05T15:48:04.575Z,15.70
2018-02-05T15:50:30.826Z,14.33
2018-02-05T15:52:57.027Z,14.33
2018-02-05T15:55:23.287Z,15.30
2018-02-05T15:57:49.553Z,13.97
2018-02-05T16:00:15.785Z,13.10
2018-02-05T16:02:41.992Z,13.43
2018-02-05T16:05:08.177Z,12.93
2018-02-05T16:07:34.307Z,13.40
2018-02-05T16:10:00.512Z,13.57
2018-02-05T16:12:26.716Z,13.60
2018-02-05T16:14:52.857Z,13.17
2018-02-05T16:17:19.007Z,14.03
2018-02-05T16:19:45.248Z,14.67
2018-02-05T16:22:11.486Z,14.87
2018-02-05T16:24:37.716Z,15.47
2018-02-05T16:27:04.015Z,14.87
2018-02-05T16:29:30.221Z,14.97
2018-02-05T16:31:56.491Z,14.93
2018-02-05T16:34:22.737Z,15.97
2018-02-05T16:36:48.965Z,16.50
2018-02-05T16:39:15.206Z,13.30
2018-02-05T16:41:41.382Z,15.87
2018-02-05T16:44:07.616Z,14.07
2018-02-05T16:46:33.848Z,14.10
2018-02-05T16:49:00.072Z,14.70
2018-02-05T16:51:26.262Z,15.13
2018-02-05T16:53:52.517Z,17.17
2018-02-05T16:56:18.712Z,17.80
2018-02-05T16:58:45.024Z,17.27
2018-02-05T17:01:11.299Z,16.83
2018-02-05T17:03:37.477Z,15.73
2018-02-05T17:06:03.701Z,21.03
2018-02-05T17:08:29.892Z,27.93
2018-02-05T17:10:56.128Z,22.77
2018-02-05T17:13:22.369Z,18.60
2018-02-05T17:15:48.518Z,19.03
2018-02-05T17:18:14.773Z,18.73
2018-02-05T17:20:40.980Z,21.27
2018-02-05T17:23:07.236Z,22.33
2018-02-05T17:25:33.456Z,19.00
2018-02-05T17:28:00.504Z,22.27
2018-02-05T17:30:26.816Z,17.53
2018-02-05T17:32:53.036Z,21.47
2018-02-05T17:35:19.245Z,18.80
2018-02-05T17:37:45.459Z,21.37
2018-02-05T17:40:11.730Z,18.63
2018-02-05T17:42:37.915Z,19.83
2018-02-05T17:45:04.067Z,19.10
2018-02-05T17:47:30.266Z,17.20
2018-02-05T17:49:56.508Z,18.53
2018-02-05T17:52:22.647Z,17.47
2018-02-05T17:54:48.874Z,19.37
2018-02-05T17:57:15.020Z,17.13
2018-02-05T17:59:41.249Z,16.77
2018-02-05T18:02:07.496Z,16.93
2018-02-05T18:04:33.716Z,16.77
2018-02-05T18:06:59.978Z,17.73
2018-02-05T18:09:26.536Z,22.83
2018-02-05T18:11:52.832Z,19.03
2018-02-05T18:14:19.078Z,18.37
2018-02-05T18:16:45.308Z,18.13
2018-02-05T18:19:11.512Z,17.77
2018-02-05T18:21:37.686Z,18.23
2018-02-05T18:24:03.959Z,19.63
2018-02-05T18:26:30.214Z,22.90
2018-02-05T18:28:56.474Z,19.60
2018-02-05T18:31:22.701Z,17.27
2018-02-05T18:33:48.947Z,20.80
2018-02-05T18:36:15.779Z,19.47
2018-02-05T18:38:42.000Z,20.40
2018-02-05T18:41:08.218Z,20.77
2018-02-05T18:43:34.412Z,20.37
2018-02-05T18:46:00.695Z,24.70
2018-02-05T18:48:26.860Z,21.50
2018-02-05T18:50:53.102Z,21.47
2018-02-05T18:53:19.303Z,19.83
2018-02-05T18:55:45.484Z,19.57
2018-02-05T18:58:11.677Z,19.60
2018-02-05T19:00:50.119Z,20.33
2018-02-05T19:03:16.344Z,20.07
2018-02-05T19:05:42.511Z,18.73
2018-02-05T19:08:08.773Z,18.90
2018-02-05T19:10:34.997Z,21.03
2018-02-05T19:13:01.167Z,19.80
2018-02-05T19:15:27.597Z,20.90
2018-02-05T19:17:53.824Z,19.73
2018-02-05T19:20:20.090Z,18.03
2018-02-05T19:22:46.303Z,20.30
2018-02-05T19:25:12.515Z,18.93
2018-02-05T19:27:38.823Z,22.43
2018-02-05T19:30:05.014Z,20.23
2018-02-05T19:32:31.294Z,18.97
2018-02-05T19:34:57.486Z,18.03
2018-02-05T19:37:23.640Z,18.23
2018-02-05T19:39:49.851Z,19.43
2018-02-05T19:42:16.100Z,19.37
2018-02-05T19:44:42.320Z,21.83
2018-02-05T19:47:08.441Z,18.97
2018-02-05T19:49:34.596Z,18.03
2018-02-05T19:52:00.822Z,16.80
2018-02-05T19:54:27.030Z,18.03
2018-02-05T19:56:53.266Z,19.27
2018-02-05T19:59:19.453Z,18.40
2018-02-05T20:01:45.695Z,18.43
2018-02-05T20:04:11.920Z,21.30
2018-02-05T20:06:38.136Z,18.03
2018-02-05T20:09:04.347Z,16.17
2018-02-05T20:11:30.595Z,17.77
2018-02-05T20:13:56.845Z,17.60
2018-02-05T20:16:23.074Z,18.37
2018-02-05T20:18:49.196Z,18.27
2018-02-05T20:21:15.380Z,17.87
2018-02-05T20:23:41.489Z,13.97
2018-02-05T20:26:07.657Z,19.70
2018-02-05T20:28:33.827Z,19.07
2018-02-05T20:31:00.024Z,16.67
2018-02-05T20:33:26.129Z,16.90
2018-02-05T20:35:52.307Z,18.03
2018-02-05T20:38:18.417Z,17.97
2018-02-05T20:40:44.865Z,20.73
2018-02-05T20:43:11.058Z,18.13
2018-02-05T20:45:37.200Z,18.53
2018-02-05T20:48:03.390Z,16.40
2018-02-05T20:50:29.554Z,16.17
2018-02-05T20:52:55.755Z,18.23
2018-02-05T20:55:21.952Z,19.57
2018-02-05T20:57:48.065Z,19.37
2018-02-05T21:00:14.177Z,18.10
2018-02-05T21:02:40.365Z,17.77
2018-02-05T21:05:06.508Z,18.43
2018-02-05T21:07:32.638Z,18.30
2018-02-05T21:09:58.918Z,18.10
2018-02-05T21:12:25.092Z,16.47
2018-02-05T21:14:51.196Z,18.53
2018-02-05T21:17:17.307Z,20.93
2018-02-05T21:19:43.418Z,18.23
2018-02-05T21:22:09.592Z,18.10
2018-02-05T21:24:35.685Z,19.23
2018-02-05T21:27:01.826Z,16.93
2018-02-05T21:29:27.915Z,18.33
2018-02-05T21:31:54.092Z,18.57
2018-02-05T21:34:20.224Z,17.20
2018-02-05T21:36:46.407Z,20.13
2018-02-05T21:39:12.513Z,19.23
2018-02-05T21:41:38.671Z,20.47
2018-02-05T21:44:04.772Z,19.47
2018-02-05T21:46:30.899Z,19.33
2018-02-05T21:48:57.104Z,20.50
2018-02-05T21:51:23.260Z,19.83
2018-02-05T21:53:49.362Z,21.73
2018-02-05T21:56:15.532Z,19.23
2018-02-05T21:58:41.676Z,20.40
2018-02-05T22:01:07.866Z,19.23
2018-02-05T22:03:34.015Z,19.67
2018-02-05T22:06:00.124Z,19.53
2018-02-05T22:08:26.231Z,17.20
2018-02-05T22:10:52.411Z,19.63
2018-02-05T22:13:18.538Z,20.60
2018-02-05T22:15:44.658Z,20.33
2018-02-05T22:18:10.738Z,19.13
2018-02-05T22:20:36.877Z,19.77
2018-02-05T22:23:03.020Z,19.33
2018-02-05T22:25:29.149Z,20.03
2018-02-05T22:27:55.280Z,19.93
2018-02-05T22:30:21.406Z,21.80
2018-02-05T22:32:47.562Z,16.97
2018-02-05T22:35:13.658Z,20.20
2018-02-05T22:37:39.858Z,17.87
2018-02-05T22:40:05.956Z,20.43
2018-02-05T22:42:32.122Z,18.53
2018-02-05T22:44:58.256Z,18.77
2018-02-05T22:47:24.423Z,19.93
2018-02-05T22:49:50.519Z,20.17
2018-02-05T22:52:16.689Z,20.80
2018-02-05T22:54:42.837Z,19.30
2018-02-05T22:57:08.951Z,19.93
2018-02-05T22:59:35.069Z,20.47
2018-02-05T23:02:01.249Z,20.47
2018-02-05T23:04:27.350Z,20.47
2018-02-05T23:06:53.468Z,19.93
2018-02-05T23:09:19.614Z,19.93
2018-02-05T23:11:45.782Z,21.63
2018-02-05T23:14:11.880Z,21.90
2018-02-05T23:16:37.987Z,20.50
2018-02-05T23:19:04.087Z,20.57
2018-02-05T23:21:30.247Z,19.10
2018-02-05T23:23:56.335Z,20.50
2018-02-05T23:26:22.463Z,20.07
2018-02-05T23:28:48.597Z,20.30
2018-02-05T23:31:14.751Z,20.10
2018-02-05T23:33:40.852Z,19.37
2018-02-05T23:36:06.992Z,21.47
2018-02-05T23:38:33.087Z,22.60
2018-02-05T23:40:59.226Z,21.50
2018-02-05T23:43:25.328Z,21.00
2018-02-05T23:45:51.432Z,22.53
2018-02-05T23:48:17.664Z,22.20
2018-02-05T23:50:44.057Z,22.93
2018-02-05T23:53:10.186Z,21.47
2018-02-05T23:55:36.343Z,22.70
2018-02-05T23:58:02.445Z,21.53
